< < Back
Terminal Aerodrome Forecast


Current Version              Previous Versions:   1  2  3  4  5  6  7  8  9  

Terminal Aerodrome Forecast

521
FTUS42 KTAE 271120
TAFDHN
TAF
KDHN 271120Z 2712/2812 12003KT P6SM BKN250
     FM271800 10004KT P6SM VCTS SCT040CB SCT250
     FM272100 VRB15G25KT 2SM TSRA SCT020 BKN050CB
     FM280400 10003KT P6SM BKN250=



Latest METAR

897
SAUS70 KWBC 272000
MTRDHN
METAR KDHN 271953Z 08007KT 050V130 10SM SCT033 SCT041 29/21 A3018 RMK
AO2 SLP215 T02890211


USA.gov is the U.S. government's official web portal to all federal, state and local government web resources and services.